createdAt,value
2022-10-13T00:01:36.148Z,10.33
2022-10-13T00:04:08.551Z,10.57
2022-10-13T00:06:39.288Z,11.40
2022-10-13T00:09:12.678Z,10.87
2022-10-13T00:11:43.419Z,10.07
2022-10-13T00:14:14.259Z,10.57
2022-10-13T00:16:49.127Z,11.00
2022-10-13T00:19:22.248Z,10.23
2022-10-13T00:21:53.040Z,9.30
2022-10-13T00:24:28.866Z,10.13
2022-10-13T00:26:59.679Z,10.60
2022-10-13T00:29:30.379Z,11.33
2022-10-13T00:32:01.076Z,9.80
2022-10-13T00:34:31.846Z,10.33
2022-10-13T00:37:02.678Z,8.97
2022-10-13T00:39:36.036Z,10.00
2022-10-13T00:42:08.033Z,8.80
2022-10-13T00:45:02.833Z,9.77
2022-10-13T00:47:38.692Z,10.10
2022-10-13T00:50:12.924Z,9.60
2022-10-13T00:52:45.575Z,10.23
2022-10-13T00:55:24.854Z,9.87
2022-10-13T00:58:02.755Z,10.60
2022-10-13T01:00:37.625Z,10.43
2022-10-13T01:03:08.432Z,10.33
2022-10-13T01:05:42.279Z,8.90
2022-10-13T01:08:15.079Z,11.80
2022-10-13T01:10:59.591Z,10.37
2022-10-13T01:13:37.120Z,8.83
2022-10-13T01:16:15.770Z,9.97
2022-10-13T01:18:55.201Z,9.97
2022-10-13T01:21:35.938Z,10.47
2022-10-13T01:24:31.662Z,9.70
2022-10-13T01:27:35.184Z,9.10
2022-10-13T01:30:20.692Z,9.83
2022-10-13T01:33:16.994Z,9.53
2022-10-13T01:36:03.492Z,9.77
2022-10-13T01:38:42.623Z,9.70
2022-10-13T01:41:20.199Z,9.70
2022-10-13T01:43:58.275Z,10.10
2022-10-13T01:46:33.837Z,10.33
2022-10-13T01:49:09.269Z,8.57
2022-10-13T01:51:41.538Z,8.53
2022-10-13T01:54:12.585Z,9.90
2022-10-13T01:56:43.302Z,9.87
2022-10-13T01:59:17.218Z,9.27
2022-10-13T02:02:02.536Z,10.17
2022-10-13T02:04:44.999Z,8.53
2022-10-13T02:07:23.401Z,8.90
2022-10-13T02:10:00.655Z,10.23
2022-10-13T02:12:38.952Z,10.00
2022-10-13T02:15:14.414Z,9.40
2022-10-13T02:17:47.706Z,9.07
2022-10-13T02:20:22.807Z,9.90
2022-10-13T02:23:00.267Z,10.37
2022-10-13T02:25:31.614Z,9.70
2022-10-13T02:28:03.405Z,9.40
2022-10-13T02:30:35.862Z,9.63
2022-10-13T02:33:09.333Z,10.60
2022-10-13T02:35:41.359Z,9.37
2022-10-13T02:38:13.334Z,9.17
2022-10-13T02:40:44.076Z,9.20
2022-10-13T02:43:14.818Z,9.80
2022-10-13T02:45:45.807Z,11.97
2022-10-13T02:48:19.101Z,10.20
2022-10-13T02:50:50.121Z,9.17
2022-10-13T02:53:20.901Z,10.70
2022-10-13T02:55:51.836Z,9.30
2022-10-13T02:58:22.768Z,8.83
2022-10-13T03:00:56.134Z,11.17
2022-10-13T03:03:29.497Z,9.23
2022-10-13T03:06:00.889Z,10.57
2022-10-13T03:08:31.804Z,10.03
2022-10-13T03:11:04.123Z,9.63
2022-10-13T03:13:35.200Z,10.27
2022-10-13T03:16:07.276Z,9.40
2022-10-13T03:18:41.897Z,9.53
2022-10-13T03:21:13.320Z,9.63
2022-10-13T03:23:44.327Z,9.30
2022-10-13T03:26:15.606Z,9.07
2022-10-13T03:28:46.343Z,9.87
2022-10-13T03:31:17.669Z,8.80
2022-10-13T03:33:51.256Z,9.50
2022-10-13T03:36:22.026Z,9.57
2022-10-13T03:38:52.826Z,9.00
2022-10-13T03:41:23.692Z,9.17
2022-10-13T03:43:56.814Z,8.90
2022-10-13T03:46:31.889Z,8.97
2022-10-13T03:49:05.213Z,10.17
2022-10-13T03:51:36.225Z,8.70
2022-10-13T03:54:07.257Z,9.90
2022-10-13T03:56:40.252Z,9.10
2022-10-13T03:59:11.206Z,9.83
2022-10-13T04:01:42.437Z,8.90
2022-10-13T04:04:16.946Z,9.77
2022-10-13T04:06:47.938Z,9.60
2022-10-13T04:09:18.693Z,10.70
2022-10-13T04:11:52.130Z,9.73
2022-10-13T04:14:23.348Z,10.33
2022-10-13T04:16:54.083Z,9.00
2022-10-13T04:19:27.656Z,8.67
2022-10-13T04:21:58.361Z,10.67
2022-10-13T04:24:29.097Z,10.30
2022-10-13T04:27:00.030Z,9.60
2022-10-13T04:29:30.958Z,9.67
2022-10-13T04:32:02.344Z,8.83
2022-10-13T04:34:35.977Z,7.97
2022-10-13T04:37:06.756Z,8.60
2022-10-13T04:39:37.668Z,9.20
2022-10-13T04:42:08.715Z,8.57
2022-10-13T04:44:39.438Z,9.60
2022-10-13T04:47:10.274Z,8.60
2022-10-13T04:49:43.639Z,8.93
2022-10-13T04:52:14.389Z,9.13
2022-10-13T04:54:46.006Z,9.67
2022-10-13T04:57:16.832Z,9.77
2022-10-13T04:59:47.921Z,9.10
2022-10-13T05:02:18.959Z,9.17
2022-10-13T05:04:52.461Z,9.67
2022-10-13T05:07:23.204Z,8.90
2022-10-13T05:09:54.688Z,9.60
2022-10-13T05:12:25.503Z,9.60
2022-10-13T05:14:59.826Z,9.50
2022-10-13T05:17:35.541Z,9.40
2022-10-13T05:20:12.290Z,9.20
2022-10-13T05:22:43.035Z,9.37
2022-10-13T05:25:15.958Z,9.60
2022-10-13T05:27:47.196Z,10.37
2022-10-13T05:30:20.338Z,8.90
2022-10-13T05:32:53.832Z,8.73
2022-10-13T05:35:27.792Z,10.20
2022-10-13T05:37:59.793Z,9.90
2022-10-13T05:40:33.113Z,9.10
2022-10-13T05:43:06.395Z,9.50
2022-10-13T05:45:37.326Z,9.33
2022-10-13T05:48:10.803Z,8.73
2022-10-13T05:50:44.569Z,8.40
2022-10-13T05:53:19.543Z,9.47
2022-10-13T05:55:50.696Z,9.30
2022-10-13T05:58:22.957Z,9.03
2022-10-13T06:00:56.423Z,8.93
2022-10-13T06:03:31.708Z,9.20
2022-10-13T06:06:07.425Z,8.07
2022-10-13T06:08:38.887Z,9.07
2022-10-13T06:11:10.764Z,9.23
2022-10-13T06:13:41.608Z,8.47
2022-10-13T06:16:12.427Z,8.13
2022-10-13T06:18:43.180Z,8.20
2022-10-13T06:21:17.363Z,8.60
2022-10-13T06:23:50.010Z,8.20
2022-10-13T06:26:20.800Z,9.00
2022-10-13T06:28:55.621Z,8.67
2022-10-13T06:31:31.059Z,7.40
2022-10-13T06:34:02.506Z,7.93
2022-10-13T06:36:36.876Z,9.03
2022-10-13T06:39:07.665Z,8.77
2022-10-13T06:41:38.863Z,7.77
2022-10-13T06:44:10.016Z,8.50
2022-10-13T06:46:40.780Z,9.83
2022-10-13T06:49:12.689Z,8.07
2022-10-13T06:51:46.169Z,8.33
2022-10-13T06:54:16.967Z,8.87
2022-10-13T06:56:48.584Z,8.90
2022-10-13T06:59:19.397Z,7.37
2022-10-13T07:01:51.799Z,8.67
2022-10-13T07:04:23.045Z,7.87
2022-10-13T07:06:57.326Z,7.53
2022-10-13T07:09:28.087Z,8.30
2022-10-13T07:12:01.210Z,7.50
2022-10-13T07:14:32.000Z,8.00
2022-10-13T07:17:02.801Z,8.90
2022-10-13T07:19:35.564Z,7.63
2022-10-13T07:22:09.642Z,7.60
2022-10-13T07:24:40.748Z,8.40
2022-10-13T07:27:13.048Z,8.40
2022-10-13T07:29:43.800Z,7.83
2022-10-13T07:32:15.967Z,7.80
2022-10-13T07:34:46.849Z,7.97
2022-10-13T07:37:20.549Z,7.03
2022-10-13T07:39:51.586Z,7.83
2022-10-13T07:42:22.326Z,8.47
2022-10-13T07:44:55.215Z,7.80
2022-10-13T07:47:26.203Z,8.13
2022-10-13T07:49:57.374Z,6.97
2022-10-13T07:52:30.746Z,8.50
2022-10-13T07:55:01.583Z,7.50
2022-10-13T07:57:32.822Z,8.00
2022-10-13T08:00:03.672Z,7.33
2022-10-13T08:02:34.903Z,7.97
2022-10-13T08:05:06.412Z,7.57
2022-10-13T08:07:40.392Z,8.47
2022-10-13T08:10:12.206Z,8.10
2022-10-13T08:12:43.339Z,8.17
2022-10-13T08:15:14.548Z,7.93
2022-10-13T08:17:50.272Z,7.83
2022-10-13T08:20:21.581Z,7.60
2022-10-13T08:22:55.224Z,8.00
2022-10-13T08:25:26.000Z,7.80
2022-10-13T08:28:00.642Z,7.23
2022-10-13T08:30:31.558Z,7.40
2022-10-13T08:33:05.502Z,7.47
2022-10-13T08:35:36.533Z,7.30
2022-10-13T08:38:10.362Z,7.70
2022-10-13T08:40:42.364Z,7.40
2022-10-13T08:43:18.527Z,7.30
2022-10-13T08:45:53.728Z,8.00
2022-10-13T08:48:27.578Z,8.03
2022-10-13T08:51:02.333Z,7.20
2022-10-13T08:53:43.838Z,6.73
2022-10-13T08:56:20.872Z,7.10
2022-10-13T08:58:56.632Z,8.07
2022-10-13T09:01:31.318Z,7.17
2022-10-13T09:04:14.636Z,7.87
2022-10-13T09:06:50.560Z,6.80
2022-10-13T09:09:24.549Z,7.73
2022-10-13T09:11:55.455Z,8.10
2022-10-13T09:14:29.907Z,6.60
2022-10-13T09:17:19.104Z,7.70
2022-10-13T09:20:01.705Z,7.83
2022-10-13T09:22:34.411Z,6.70
2022-10-13T09:25:12.890Z,6.80
2022-10-13T09:27:48.735Z,6.20
2022-10-13T09:30:29.956Z,7.20
2022-10-13T09:33:21.699Z,7.17
2022-10-13T09:36:11.126Z,7.13
2022-10-13T09:38:43.201Z,7.50
2022-10-13T09:41:23.583Z,7.60
2022-10-13T09:44:03.336Z,6.53
2022-10-13T09:46:39.310Z,7.37
2022-10-13T09:49:24.398Z,6.47
2022-10-13T09:51:55.386Z,7.10
2022-10-13T09:54:31.257Z,7.47
2022-10-13T09:57:08.442Z,6.63
2022-10-13T09:59:48.831Z,6.67
2022-10-13T10:02:27.449Z,5.63
2022-10-13T10:05:02.226Z,6.37
2022-10-13T10:07:35.501Z,7.20
2022-10-13T10:10:17.027Z,7.20
2022-10-13T10:12:50.484Z,6.03
2022-10-13T10:15:27.578Z,6.20
2022-10-13T10:18:02.985Z,6.47
2022-10-13T10:20:57.032Z,6.70
2022-10-13T10:23:37.079Z,6.87
2022-10-13T10:26:14.065Z,5.50
2022-10-13T10:29:12.432Z,6.67
2022-10-13T10:31:54.404Z,7.23
2022-10-13T10:34:35.828Z,6.10
2022-10-13T10:37:21.432Z,6.73
2022-10-13T10:40:07.959Z,6.53
2022-10-13T10:43:02.592Z,5.80
2022-10-13T10:45:42.467Z,7.17
2022-10-13T10:48:21.113Z,7.30
2022-10-13T10:50:55.993Z,6.40
2022-10-13T10:53:38.725Z,7.00
2022-10-13T10:56:22.138Z,6.60
2022-10-13T10:59:04.618Z,6.40
2022-10-13T11:01:44.452Z,5.97
2022-10-13T11:04:41.205Z,5.83
2022-10-13T11:07:17.332Z,6.20
2022-10-13T11:10:04.854Z,5.77
2022-10-13T11:13:05.128Z,6.50
2022-10-13T11:15:46.451Z,6.03
2022-10-13T11:18:47.340Z,5.50
2022-10-13T11:21:20.714Z,6.10
2022-10-13T11:23:52.926Z,5.50
2022-10-13T11:26:43.352Z,5.97
2022-10-13T11:29:42.348Z,5.97
2022-10-13T11:32:55.143Z,6.57
2022-10-13T11:35:31.387Z,5.37
2022-10-13T11:38:26.577Z,6.50
2022-10-13T11:41:17.344Z,4.90
2022-10-13T11:43:55.979Z,6.10
2022-10-13T11:46:39.056Z,5.80
2022-10-13T11:49:31.876Z,5.10
2022-10-13T11:52:38.240Z,6.10
2022-10-13T11:55:18.500Z,6.00
2022-10-13T11:57:49.241Z,5.70
2022-10-13T12:00:22.232Z,5.60
2022-10-13T12:02:55.150Z,5.17
2022-10-13T12:05:29.939Z,5.77
2022-10-13T12:08:06.105Z,5.10
2022-10-13T12:10:40.587Z,4.90
2022-10-13T12:13:22.285Z,5.40
2022-10-13T12:16:01.034Z,5.07
2022-10-13T12:18:34.258Z,4.47
2022-10-13T12:21:11.643Z,5.40
2022-10-13T12:23:43.196Z,4.93
2022-10-13T12:26:20.633Z,5.20
2022-10-13T12:28:53.791Z,4.97
2022-10-13T12:31:26.564Z,4.50
2022-10-13T12:33:59.751Z,4.47
2022-10-13T12:36:32.953Z,5.53
2022-10-13T12:39:08.468Z,5.23
2022-10-13T12:41:46.011Z,5.00
2022-10-13T12:44:20.598Z,5.13
2022-10-13T12:46:56.259Z,4.93
2022-10-13T12:49:29.100Z,4.27
2022-10-13T12:52:07.161Z,4.67
2022-10-13T12:54:40.033Z,4.93
2022-10-13T12:57:20.903Z,4.93
2022-10-13T12:59:53.740Z,4.90
2022-10-13T13:02:29.128Z,5.13
2022-10-13T13:04:59.977Z,4.40
2022-10-13T13:07:38.416Z,4.90
2022-10-13T13:10:28.492Z,5.00
2022-10-13T13:13:17.210Z,4.80
2022-10-13T13:15:48.050Z,4.90
2022-10-13T13:18:39.653Z,5.33
2022-10-13T13:21:12.081Z,5.47
2022-10-13T13:23:43.135Z,5.83
2022-10-13T13:26:16.773Z,5.70
2022-10-13T13:28:51.861Z,5.73
2022-10-13T13:31:25.453Z,5.70
2022-10-13T13:34:01.608Z,5.63
2022-10-13T13:36:33.863Z,5.60
2022-10-13T13:39:04.642Z,7.33
2022-10-13T13:41:35.814Z,6.80
2022-10-13T13:44:09.248Z,6.37
2022-10-13T13:46:40.363Z,6.43
2022-10-13T13:49:13.247Z,6.63
2022-10-13T13:51:44.112Z,8.10
2022-10-13T13:54:14.943Z,7.60
2022-10-13T13:56:45.679Z,7.90
2022-10-13T13:59:19.278Z,7.00
2022-10-13T14:01:50.328Z,7.27
2022-10-13T14:04:23.679Z,8.33
2022-10-13T14:06:54.689Z,6.80
2022-10-13T14:09:25.532Z,6.70
2022-10-13T14:11:56.315Z,7.30
2022-10-13T14:14:32.260Z,6.60
2022-10-13T14:17:04.016Z,7.07
2022-10-13T14:19:36.816Z,5.70
2022-10-13T14:22:09.608Z,7.60
2022-10-13T14:24:40.460Z,7.20
2022-10-13T14:27:11.576Z,6.10
2022-10-13T14:29:44.960Z,6.00
2022-10-13T14:32:16.135Z,7.40
2022-10-13T14:34:50.617Z,8.33
2022-10-13T14:37:30.370Z,8.20
2022-10-13T14:40:03.606Z,8.27
2022-10-13T14:42:34.415Z,8.70
2022-10-13T14:45:13.073Z,9.20
2022-10-13T14:47:45.311Z,7.83
2022-10-13T14:50:16.107Z,8.87
2022-10-13T14:52:46.901Z,7.50
2022-10-13T14:55:18.024Z,8.40
2022-10-13T14:57:48.778Z,9.30
2022-10-13T15:00:22.360Z,7.50
2022-10-13T15:02:53.088Z,9.23
2022-10-13T15:05:25.027Z,9.03
2022-10-13T15:07:58.463Z,8.87
2022-10-13T15:10:30.582Z,8.90
2022-10-13T15:13:01.338Z,8.80
2022-10-13T15:15:34.768Z,8.30
2022-10-13T15:18:05.793Z,8.17
2022-10-13T15:20:36.592Z,7.67
2022-10-13T15:23:07.498Z,7.87
2022-10-13T15:25:39.496Z,9.10
2022-10-13T15:28:10.711Z,9.10
2022-10-13T15:30:44.208Z,10.47
2022-10-13T15:33:14.986Z,9.90
2022-10-13T15:35:46.658Z,9.17
2022-10-13T15:38:17.590Z,11.70
2022-10-13T15:40:49.036Z,11.80
2022-10-13T15:43:20.699Z,11.97
2022-10-13T15:46:02.921Z,9.53
2022-10-13T15:48:34.492Z,10.27
2022-10-13T15:51:11.295Z,9.20
2022-10-13T15:53:47.113Z,8.67
2022-10-13T15:56:18.906Z,8.90
2022-10-13T15:58:50.080Z,10.07
2022-10-13T16:01:23.983Z,10.00
2022-10-13T16:03:57.118Z,10.37
2022-10-13T16:06:29.747Z,11.63
2022-10-13T16:09:03.006Z,10.60
2022-10-13T16:11:34.151Z,10.20
2022-10-13T16:14:07.479Z,11.70
2022-10-13T16:16:41.311Z,11.23
2022-10-13T16:19:14.888Z,10.57
2022-10-13T16:21:47.939Z,11.77
2022-10-13T16:24:20.029Z,11.73
2022-10-13T16:26:52.065Z,10.93
2022-10-13T16:29:25.943Z,10.30
2022-10-13T16:32:00.407Z,13.73
2022-10-13T16:34:31.412Z,10.10
2022-10-13T16:37:02.418Z,11.37
2022-10-13T16:39:34.374Z,11.30
2022-10-13T16:42:05.658Z,10.57
2022-10-13T16:44:39.868Z,12.80
2022-10-13T16:47:18.236Z,10.67
2022-10-13T16:49:52.469Z,11.53
2022-10-13T16:52:23.170Z,12.90
2022-10-13T16:54:54.261Z,12.07
2022-10-13T16:57:25.864Z,11.03
2022-10-13T16:59:56.688Z,12.17
2022-10-13T17:02:30.296Z,12.63
2022-10-13T17:05:02.829Z,11.63
2022-10-13T17:07:33.959Z,11.17
2022-10-13T17:10:05.810Z,12.13
2022-10-13T17:12:39.894Z,13.00
2022-10-13T17:15:17.144Z,13.27
2022-10-13T17:17:50.518Z,11.63
2022-10-13T17:20:21.338Z,12.37
2022-10-13T17:22:52.153Z,11.10
2022-10-13T17:25:23.018Z,12.87
2022-10-13T17:27:53.725Z,12.77
2022-10-13T17:30:25.894Z,12.50
2022-10-13T17:33:04.380Z,13.30
2022-10-13T17:35:35.553Z,12.70
2022-10-13T17:38:06.452Z,10.97
2022-10-13T17:40:38.032Z,12.43
2022-10-13T17:43:13.481Z,11.50
2022-10-13T17:45:44.563Z,12.57
2022-10-13T17:48:22.853Z,12.60
2022-10-13T17:50:54.209Z,11.23
2022-10-13T17:53:27.942Z,11.90
2022-10-13T17:56:08.615Z,11.80
2022-10-13T17:58:40.282Z,10.80
2022-10-13T18:01:13.904Z,10.50
2022-10-13T18:03:50.543Z,9.90
2022-10-13T18:06:23.863Z,11.20
2022-10-13T18:08:54.728Z,9.70
2022-10-13T18:11:29.912Z,10.33
2022-10-13T18:14:03.142Z,11.70
2022-10-13T18:16:40.687Z,11.10
2022-10-13T18:19:14.276Z,12.33
2022-10-13T18:21:45.118Z,11.50
2022-10-13T18:24:16.381Z,12.10
2022-10-13T18:26:50.164Z,10.93
2022-10-13T18:29:21.024Z,11.57
2022-10-13T18:31:52.292Z,14.60
2022-10-13T18:34:27.097Z,13.83
2022-10-13T18:36:58.471Z,11.90
2022-10-13T18:39:30.857Z,12.93
2022-10-13T18:42:01.692Z,11.13
2022-10-13T18:44:32.613Z,10.13
2022-10-13T18:47:03.861Z,7.20
2022-10-13T18:49:37.377Z,7.23
2022-10-13T18:52:08.539Z,7.87
2022-10-13T18:54:39.437Z,6.93
2022-10-13T18:57:13.226Z,7.53
2022-10-13T18:59:44.272Z,9.30
2022-10-13T19:02:16.882Z,7.53
2022-10-13T19:04:50.390Z,9.77
2022-10-13T19:07:21.537Z,7.10
2022-10-13T19:09:52.525Z,8.60
2022-10-13T19:12:23.374Z,9.40
2022-10-13T19:14:58.344Z,8.83
2022-10-13T19:17:31.478Z,11.13
2022-10-13T19:20:06.797Z,8.30
2022-10-13T19:22:39.011Z,8.83
2022-10-13T19:25:12.205Z,13.30
2022-10-13T19:27:43.423Z,11.10
2022-10-13T19:30:16.966Z,10.77
2022-10-13T19:32:47.931Z,11.17
2022-10-13T19:35:21.715Z,10.73
2022-10-13T19:37:52.519Z,10.27
2022-10-13T19:40:23.448Z,10.23
2022-10-13T19:42:54.512Z,9.97
2022-10-13T19:45:25.643Z,9.30
2022-10-13T19:47:56.697Z,10.40
2022-10-13T19:50:31.372Z,13.87
2022-10-13T19:53:02.176Z,10.50
2022-10-13T19:55:42.563Z,11.40
2022-10-13T19:58:15.984Z,10.57
2022-10-13T20:00:50.835Z,9.97
2022-10-13T20:03:23.323Z,10.57
2022-10-13T20:05:56.668Z,10.93
2022-10-13T20:08:27.469Z,10.20
2022-10-13T20:10:58.276Z,9.97
2022-10-13T20:13:30.447Z,9.70
2022-10-13T20:16:02.015Z,9.20
2022-10-13T20:18:34.010Z,12.10
2022-10-13T20:21:08.686Z,11.60
2022-10-13T20:23:40.662Z,13.20
2022-10-13T20:26:14.547Z,13.63
2022-10-13T20:28:49.782Z,12.10
2022-10-13T20:31:25.547Z,10.83
